sensor_id;sensor_type;location;lat;lon;timestamp;pressure;altitude;pressure_sealevel;temperature;humidity
38780;BME280;29273;49.962;9.768;2023-02-13T00:02:19;101946.16;;;10.23;56.94
38780;BME280;29273;49.962;9.768;2023-02-13T00:04:45;101937.22;;;10.24;57.01
38780;BME280;29273;49.962;9.768;2023-02-13T00:07:11;101942.50;;;10.24;56.90
38780;BME280;29273;49.962;9.768;2023-02-13T00:09:37;101936.25;;;10.25;57.10
38780;BME280;29273;49.962;9.768;2023-02-13T00:12:04;101935.41;;;10.24;56.98
38780;BME280;29273;49.962;9.768;2023-02-13T00:14:29;101930.94;;;10.25;57.21
38780;BME280;29273;49.962;9.768;2023-02-13T00:16:55;101929.28;;;10.24;57.06
38780;BME280;29273;49.962;9.768;2023-02-13T00:19:20;101919.53;;;10.24;57.03
38780;BME280;29273;49.962;9.768;2023-02-13T00:21:46;101922.19;;;10.24;56.79
38780;BME280;29273;49.962;9.768;2023-02-13T00:24:11;101922.19;;;10.24;56.76
38780;BME280;29273;49.962;9.768;2023-02-13T00:26:37;101921.31;;;10.24;56.71
38780;BME280;29273;49.962;9.768;2023-02-13T00:29:04;101913.66;;;10.21;56.68
38780;BME280;29273;49.962;9.768;2023-02-13T00:31:30;101917.47;;;10.18;56.73
38780;BME280;29273;49.962;9.768;2023-02-13T00:33:55;101915.94;;;10.15;56.74
38780;BME280;29273;49.962;9.768;2023-02-13T00:36:21;101909.97;;;10.13;56.69
38780;BME280;29273;49.962;9.768;2023-02-13T00:38:48;101910.78;;;10.14;56.75
38780;BME280;29273;49.962;9.768;2023-02-13T00:41:14;101912.88;;;10.10;56.64
38780;BME280;29273;49.962;9.768;2023-02-13T00:43:42;101910.38;;;10.09;56.65
38780;BME280;29273;49.962;9.768;2023-02-13T00:46:08;101908.88;;;10.06;56.53
38780;BME280;29273;49.962;9.768;2023-02-13T00:48:34;101907.34;;;10.04;56.56
38780;BME280;29273;49.962;9.768;2023-02-13T00:51:00;101911.16;;;10.01;56.41
38780;BME280;29273;49.962;9.768;2023-02-13T00:53:29;101908.78;;;9.98;56.30
38780;BME280;29273;49.962;9.768;2023-02-13T00:55:54;101904.59;;;9.95;56.05
38780;BME280;29273;49.962;9.768;2023-02-13T00:58:20;101906.84;;;9.90;56.17
38780;BME280;29273;49.962;9.768;2023-02-13T01:00:46;101902.00;;;9.86;56.00
38780;BME280;29273;49.962;9.768;2023-02-13T01:03:13;101902.44;;;9.81;55.60
38780;BME280;29273;49.962;9.768;2023-02-13T01:05:38;101901.34;;;9.74;55.51
38780;BME280;29273;49.962;9.768;2023-02-13T01:08:04;101911.53;;;9.69;55.45
38780;BME280;29273;49.962;9.768;2023-02-13T01:10:32;101910.31;;;9.63;55.24
38780;BME280;29273;49.962;9.768;2023-02-13T01:12:57;101910.88;;;9.57;55.13
38780;BME280;29273;49.962;9.768;2023-02-13T01:15:23;101915.06;;;9.50;55.22
38780;BME280;29273;49.962;9.768;2023-02-13T01:17:48;101908.66;;;9.42;55.41
38780;BME280;29273;49.962;9.768;2023-02-13T01:20:14;101910.91;;;9.37;55.23
38780;BME280;29273;49.962;9.768;2023-02-13T01:22:40;101912.44;;;9.30;55.13
38780;BME280;29273;49.962;9.768;2023-02-13T01:25:08;101918.28;;;9.24;55.01
38780;BME280;29273;49.962;9.768;2023-02-13T01:27:34;101913.72;;;9.16;55.09
38780;BME280;29273;49.962;9.768;2023-02-13T01:30:00;101919.56;;;9.10;54.85
38780;BME280;29273;49.962;9.768;2023-02-13T01:32:25;101914.00;;;9.03;54.92
38780;BME280;29273;49.962;9.768;2023-02-13T01:34:51;101911.91;;;8.97;54.73
38780;BME280;29273;49.962;9.768;2023-02-13T01:37:16;101915.97;;;8.92;54.65
38780;BME280;29273;49.962;9.768;2023-02-13T01:39:43;101903.28;;;8.85;54.85
38780;BME280;29273;49.962;9.768;2023-02-13T01:42:21;101910.53;;;8.83;54.38
38780;BME280;29273;49.962;9.768;2023-02-13T01:44:54;101907.47;;;8.78;54.43
38780;BME280;29273;49.962;9.768;2023-02-13T01:47:31;101906.19;;;8.73;54.41
38780;BME280;29273;49.962;9.768;2023-02-13T01:50:06;101893.97;;;8.62;54.60
38780;BME280;29273;49.962;9.768;2023-02-13T01:52:35;101905.63;;;8.59;54.39
38780;BME280;29273;49.962;9.768;2023-02-13T01:55:03;101897.41;;;8.52;54.51
38780;BME280;29273;49.962;9.768;2023-02-13T01:57:31;101900.50;;;8.48;54.43
38780;BME280;29273;49.962;9.768;2023-02-13T02:00:05;101898.94;;;8.45;54.27
38780;BME280;29273;49.962;9.768;2023-02-13T02:02:50;101897.78;;;8.38;54.13
38780;BME280;29273;49.962;9.768;2023-02-13T02:05:23;101895.69;;;8.32;54.22
38780;BME280;29273;49.962;9.768;2023-02-13T02:07:52;101896.22;;;8.26;54.25
38780;BME280;29273;49.962;9.768;2023-02-13T02:10:21;101891.63;;;8.18;54.30
38780;BME280;29273;49.962;9.768;2023-02-13T02:13:05;101897.03;;;8.17;54.03
38780;BME280;29273;49.962;9.768;2023-02-13T02:15:33;101888.13;;;8.08;54.15
38780;BME280;29273;49.962;9.768;2023-02-13T02:17:59;101889.34;;;8.04;54.05
38780;BME280;29273;49.962;9.768;2023-02-13T02:29:11;101890.81;;;7.87;54.07
38780;BME280;29273;49.962;9.768;2023-02-13T02:32:09;101898.56;;;7.78;54.07
38780;BME280;29273;49.962;9.768;2023-02-13T02:40:26;101896.69;;;7.69;53.98
38780;BME280;29273;49.962;9.768;2023-02-13T02:43:24;101897.50;;;7.60;54.02
38780;BME280;29273;49.962;9.768;2023-02-13T02:46:23;101895.13;;;7.57;54.14
38780;BME280;29273;49.962;9.768;2023-02-13T02:49:03;101902.22;;;7.56;54.09
38780;BME280;29273;49.962;9.768;2023-02-13T02:54:41;101904.78;;;7.47;53.89
38780;BME280;29273;49.962;9.768;2023-02-13T02:57:31;101903.75;;;7.38;54.10
38780;BME280;29273;49.962;9.768;2023-02-13T03:00:20;101904.72;;;7.37;53.59
38780;BME280;29273;49.962;9.768;2023-02-13T03:03:14;101904.16;;;7.33;53.48
38780;BME280;29273;49.962;9.768;2023-02-13T03:06:01;101905.75;;;7.25;53.51
38780;BME280;29273;49.962;9.768;2023-02-13T03:08:44;101900.50;;;7.25;53.70
38780;BME280;29273;49.962;9.768;2023-02-13T03:11:29;101892.50;;;7.15;54.06
38780;BME280;29273;49.962;9.768;2023-02-13T03:14:18;101892.63;;;7.13;53.75
38780;BME280;29273;49.962;9.768;2023-02-13T03:16:44;101887.03;;;7.07;53.80
38780;BME280;29273;49.962;9.768;2023-02-13T03:31:37;101904.81;;;6.93;54.03
38780;BME280;29273;49.962;9.768;2023-02-13T03:34:12;101905.91;;;6.91;54.40
38780;BME280;29273;49.962;9.768;2023-02-13T03:36:48;101897.16;;;6.90;54.04
38780;BME280;29273;49.962;9.768;2023-02-13T03:42:32;101907.13;;;6.87;54.15
38780;BME280;29273;49.962;9.768;2023-02-13T03:45:04;101905.44;;;6.85;54.22
38780;BME280;29273;49.962;9.768;2023-02-13T03:47:54;101904.88;;;6.82;54.27
38780;BME280;29273;49.962;9.768;2023-02-13T03:50:21;101905.09;;;6.79;54.44
38780;BME280;29273;49.962;9.768;2023-02-13T03:53:01;101917.22;;;6.81;54.09
38780;BME280;29273;49.962;9.768;2023-02-13T03:55:45;101912.19;;;6.78;53.97
38780;BME280;29273;49.962;9.768;2023-02-13T03:58:35;101913.00;;;6.79;54.20
38780;BME280;29273;49.962;9.768;2023-02-13T04:01:25;101910.50;;;6.77;54.22
38780;BME280;29273;49.962;9.768;2023-02-13T04:03:58;101921.03;;;6.77;54.49
38780;BME280;29273;49.962;9.768;2023-02-13T04:06:33;101916.47;;;6.79;54.66
38780;BME280;29273;49.962;9.768;2023-02-13T04:09:00;101922.00;;;6.76;54.97
38780;BME280;29273;49.962;9.768;2023-02-13T04:11:34;101917.22;;;6.81;54.93
38780;BME280;29273;49.962;9.768;2023-02-13T04:14:13;101909.19;;;6.83;55.23
38780;BME280;29273;49.962;9.768;2023-02-13T04:16:44;101915.28;;;6.83;55.15
38780;BME280;29273;49.962;9.768;2023-02-13T04:19:12;101929.50;;;6.81;55.52
38780;BME280;29273;49.962;9.768;2023-02-13T04:21:39;101924.13;;;6.82;55.56
38780;BME280;29273;49.962;9.768;2023-02-13T04:24:05;101927.75;;;6.81;55.52
38780;BME280;29273;49.962;9.768;2023-02-13T04:26:50;101938.28;;;6.81;55.29
38780;BME280;29273;49.962;9.768;2023-02-13T04:29:15;101932.44;;;6.78;55.70
38780;BME280;29273;49.962;9.768;2023-02-13T04:31:41;101938.50;;;6.78;55.91
38780;BME280;29273;49.962;9.768;2023-02-13T04:34:06;101929.06;;;6.76;56.20
38780;BME280;29273;49.962;9.768;2023-02-13T04:36:32;101944.03;;;6.75;56.20
38780;BME280;29273;49.962;9.768;2023-02-13T04:38:57;101939.72;;;6.74;56.76
38780;BME280;29273;49.962;9.768;2023-02-13T04:41:22;101940.69;;;6.73;56.93
38780;BME280;29273;49.962;9.768;2023-02-13T04:43:48;101932.78;;;6.73;57.05
38780;BME280;29273;49.962;9.768;2023-02-13T04:46:13;101932.66;;;6.75;57.27
38780;BME280;29273;49.962;9.768;2023-02-13T04:48:39;101921.16;;;6.76;57.42
38780;BME280;29273;49.962;9.768;2023-02-13T04:51:05;101926.28;;;6.77;57.52
38780;BME280;29273;49.962;9.768;2023-02-13T04:53:30;101926.19;;;6.79;57.61
38780;BME280;29273;49.962;9.768;2023-02-13T04:55:55;101926.19;;;6.79;57.73
38780;BME280;29273;49.962;9.768;2023-02-13T04:58:21;101933.13;;;6.80;57.71
38780;BME280;29273;49.962;9.768;2023-02-13T05:00:46;101925.09;;;6.81;57.85
38780;BME280;29273;49.962;9.768;2023-02-13T05:03:12;101938.16;;;6.83;58.05
38780;BME280;29273;49.962;9.768;2023-02-13T05:05:38;101941.63;;;6.83;57.89
38780;BME280;29273;49.962;9.768;2023-02-13T05:08:06;101937.88;;;6.86;57.75
38780;BME280;29273;49.962;9.768;2023-02-13T05:10:32;101944.13;;;6.85;57.89
38780;BME280;29273;49.962;9.768;2023-02-13T05:12:58;101938.03;;;6.84;57.76
38780;BME280;29273;49.962;9.768;2023-02-13T05:15:23;101932.75;;;6.84;57.89
38780;BME280;29273;49.962;9.768;2023-02-13T05:17:49;101937.16;;;6.84;58.12
38780;BME280;29273;49.962;9.768;2023-02-13T05:20:15;101938.84;;;6.85;58.20
38780;BME280;29273;49.962;9.768;2023-02-13T05:22:49;101943.75;;;6.90;57.92
38780;BME280;29273;49.962;9.768;2023-02-13T05:25:35;101942.19;;;6.87;58.21
38780;BME280;29273;49.962;9.768;2023-02-13T05:28:01;101935.41;;;6.84;58.27
38780;BME280;29273;49.962;9.768;2023-02-13T05:30:26;101936.09;;;6.87;58.33
38780;BME280;29273;49.962;9.768;2023-02-13T05:32:52;101934.28;;;6.87;58.40
38780;BME280;29273;49.962;9.768;2023-02-13T05:35:22;101935.56;;;6.93;57.86
38780;BME280;29273;49.962;9.768;2023-02-13T05:37:49;101934.03;;;6.90;58.05
38780;BME280;29273;49.962;9.768;2023-02-13T05:40:15;101938.50;;;6.90;58.14
38780;BME280;29273;49.962;9.768;2023-02-13T05:42:41;101940.25;;;6.89;57.79
38780;BME280;29273;49.962;9.768;2023-02-13T05:45:08;101942.78;;;6.91;57.75
38780;BME280;29273;49.962;9.768;2023-02-13T05:47:34;101945.66;;;6.88;57.92
38780;BME280;29273;49.962;9.768;2023-02-13T05:50:00;101945.06;;;6.84;57.93
38780;BME280;29273;49.962;9.768;2023-02-13T05:52:25;101948.69;;;6.83;57.82
38780;BME280;29273;49.962;9.768;2023-02-13T05:54:51;101951.44;;;6.81;57.93
38780;BME280;29273;49.962;9.768;2023-02-13T05:57:17;101958.59;;;6.79;58.06
38780;BME280;29273;49.962;9.768;2023-02-13T05:59:43;101958.59;;;6.79;58.16
38780;BME280;29273;49.962;9.768;2023-02-13T06:02:08;101955.25;;;6.77;58.18
38780;BME280;29273;49.962;9.768;2023-02-13T06:04:34;101961.50;;;6.76;58.40
38780;BME280;29273;49.962;9.768;2023-02-13T06:06:59;101963.28;;;6.76;58.38
38780;BME280;29273;49.962;9.768;2023-02-13T06:09:25;101964.97;;;6.77;58.36
38780;BME280;29273;49.962;9.768;2023-02-13T06:11:50;101964.97;;;6.77;58.47
38780;BME280;29273;49.962;9.768;2023-02-13T06:14:16;101963.16;;;6.77;58.30
38780;BME280;29273;49.962;9.768;2023-02-13T06:16:41;101965.81;;;6.77;58.41
38780;BME280;29273;49.962;9.768;2023-02-13T06:19:07;101964.03;;;6.78;58.37
38780;BME280;29273;49.962;9.768;2023-02-13T06:21:32;101967.50;;;6.78;58.36
38780;BME280;29273;49.962;9.768;2023-02-13T06:24:05;101973.34;;;6.82;57.90
38780;BME280;29273;49.962;9.768;2023-02-13T06:26:30;101972.16;;;6.75;58.25
38780;BME280;29273;49.962;9.768;2023-02-13T06:28:56;101977.56;;;6.73;58.45
38780;BME280;29273;49.962;9.768;2023-02-13T06:31:22;101981.13;;;6.72;58.25
38780;BME280;29273;49.962;9.768;2023-02-13T06:33:48;101981.25;;;6.71;58.34
38780;BME280;29273;49.962;9.768;2023-02-13T06:36:13;101984.13;;;6.67;58.46
38780;BME280;29273;49.962;9.768;2023-02-13T06:38:39;101984.53;;;6.63;58.74
38780;BME280;29273;49.962;9.768;2023-02-13T06:41:04;101981.78;;;6.64;58.72
38780;BME280;29273;49.962;9.768;2023-02-13T06:43:31;101982.72;;;6.63;58.84
38780;BME280;29273;49.962;9.768;2023-02-13T06:45:56;101972.19;;;6.63;59.12
38780;BME280;29273;49.962;9.768;2023-02-13T06:48:22;101983.53;;;6.64;59.23
38780;BME280;29273;49.962;9.768;2023-02-13T06:50:47;101991.31;;;6.65;58.95
38780;BME280;29273;49.962;9.768;2023-02-13T06:53:13;101986.88;;;6.66;58.92
38780;BME280;29273;49.962;9.768;2023-02-13T06:55:38;101983.53;;;6.64;59.22
38780;BME280;29273;49.962;9.768;2023-02-13T06:58:04;101992.16;;;6.66;59.09
38780;BME280;29273;49.962;9.768;2023-02-13T07:00:30;101992.31;;;6.64;58.93
38780;BME280;29273;49.962;9.768;2023-02-13T07:03:03;101985.00;;;6.68;58.45
38780;BME280;29273;49.962;9.768;2023-02-13T07:05:29;101993.25;;;6.63;59.12
38780;BME280;29273;49.962;9.768;2023-02-13T07:07:55;101985.47;;;6.62;59.27
38780;BME280;29273;49.962;9.768;2023-02-13T07:10:20;101991.56;;;6.62;59.04
38780;BME280;29273;49.962;9.768;2023-02-13T07:12:46;101986.41;;;6.61;59.14
38780;BME280;29273;49.962;9.768;2023-02-13T07:15:11;101990.75;;;6.62;59.29
38780;BME280;29273;49.962;9.768;2023-02-13T07:17:37;101996.81;;;6.62;59.29
38780;BME280;29273;49.962;9.768;2023-02-13T07:20:04;101995.75;;;6.65;59.06
38780;BME280;29273;49.962;9.768;2023-02-13T07:22:31;101993.97;;;6.65;59.10
38780;BME280;29273;49.962;9.768;2023-02-13T07:24:57;101999.34;;;6.64;59.39
38780;BME280;29273;49.962;9.768;2023-02-13T07:27:23;102002.69;;;6.66;59.47
38780;BME280;29273;49.962;9.768;2023-02-13T07:29:48;101995.75;;;6.65;59.22
38780;BME280;29273;49.962;9.768;2023-02-13T07:32:14;102003.53;;;6.66;59.26
38780;BME280;29273;49.962;9.768;2023-02-13T07:34:39;102001.63;;;6.69;59.38
38780;BME280;29273;49.962;9.768;2023-02-13T07:37:05;102008.56;;;6.70;59.39
38780;BME280;29273;49.962;9.768;2023-02-13T07:39:30;102001.25;;;6.73;59.26
38780;BME280;29273;49.962;9.768;2023-02-13T07:41:56;102004.59;;;6.75;59.26
38780;BME280;29273;49.962;9.768;2023-02-13T07:44:24;102006.16;;;6.78;59.32
38780;BME280;29273;49.962;9.768;2023-02-13T07:46:49;102009.50;;;6.80;59.35
38780;BME280;29273;49.962;9.768;2023-02-13T07:49:15;102005.88;;;6.81;59.26
38780;BME280;29273;49.962;9.768;2023-02-13T07:51:40;102009.16;;;6.84;59.19
38780;BME280;29273;49.962;9.768;2023-02-13T07:54:06;102009.00;;;6.86;59.32
38780;BME280;29273;49.962;9.768;2023-02-13T07:56:31;102010.44;;;6.90;59.36
38780;BME280;29273;49.962;9.768;2023-02-13T07:58:57;102014.75;;;6.91;59.33
38780;BME280;29273;49.962;9.768;2023-02-13T08:01:22;102013.66;;;6.94;59.10
38780;BME280;29273;49.962;9.768;2023-02-13T08:03:49;102015.22;;;6.96;58.89
38780;BME280;29273;49.962;9.768;2023-02-13T08:06:16;102015.22;;;6.96;58.68
38780;BME280;29273;49.962;9.768;2023-02-13T08:08:42;102016.03;;;6.97;58.76
38780;BME280;29273;49.962;9.768;2023-02-13T08:11:27;102024.41;;;7.02;58.30
38780;BME280;29273;49.962;9.768;2023-02-13T08:14:13;102011.84;;;6.94;58.83
38780;BME280;29273;49.962;9.768;2023-02-13T08:16:39;102014.34;;;6.96;58.97
38780;BME280;29273;49.962;9.768;2023-02-13T08:19:05;102014.25;;;6.97;58.97
38780;BME280;29273;49.962;9.768;2023-02-13T08:21:30;102015.94;;;6.98;58.79
38780;BME280;29273;49.962;9.768;2023-02-13T08:23:56;102020.09;;;7.01;58.86
38780;BME280;29273;49.962;9.768;2023-02-13T08:26:22;102024.41;;;7.02;58.73
38780;BME280;29273;49.962;9.768;2023-02-13T08:28:47;102030.38;;;7.04;58.87
38780;BME280;29273;49.962;9.768;2023-02-13T08:31:12;102027.63;;;7.06;58.88
38780;BME280;29273;49.962;9.768;2023-02-13T08:33:38;102028.34;;;7.08;59.04
38780;BME280;29273;49.962;9.768;2023-02-13T08:36:06;102030.59;;;7.12;59.04
38780;BME280;29273;49.962;9.768;2023-02-13T08:38:32;102031.31;;;7.14;59.10
38780;BME280;29273;49.962;9.768;2023-02-13T08:40:57;102024.97;;;7.17;59.04
38780;BME280;29273;49.962;9.768;2023-02-13T08:43:23;102033.47;;;7.20;58.81
38780;BME280;29273;49.962;9.768;2023-02-13T08:45:48;102030.56;;;7.23;58.73
38780;BME280;29273;49.962;9.768;2023-02-13T08:48:14;102033.91;;;7.26;58.73
38780;BME280;29273;49.962;9.768;2023-02-13T08:50:39;102025.06;;;7.27;58.90
38780;BME280;29273;49.962;9.768;2023-02-13T08:53:05;102019.53;;;7.30;58.97
38780;BME280;29273;49.962;9.768;2023-02-13T08:55:30;102021.19;;;7.31;58.83
38780;BME280;29273;49.962;9.768;2023-02-13T08:58:03;102015.44;;;7.37;58.45
38780;BME280;29273;49.962;9.768;2023-02-13T09:00:29;102024.28;;;7.36;58.85
38780;BME280;29273;49.962;9.768;2023-02-13T09:03:01;102018.53;;;7.42;58.66
38780;BME280;29273;49.962;9.768;2023-02-13T09:05:28;102019.63;;;7.39;58.95
38780;BME280;29273;49.962;9.768;2023-02-13T09:07:53;102026.44;;;7.42;59.01
38780;BME280;29273;49.962;9.768;2023-02-13T09:10:19;102028.94;;;7.44;59.10
38780;BME280;29273;49.962;9.768;2023-02-13T09:12:51;102030.09;;;7.51;58.85
38780;BME280;29273;49.962;9.768;2023-02-13T09:15:16;102025.09;;;7.48;59.22
38780;BME280;29273;49.962;9.768;2023-02-13T09:17:42;102028.44;;;7.50;58.87
38780;BME280;29273;49.962;9.768;2023-02-13T09:20:07;102028.19;;;7.53;58.91
38780;BME280;29273;49.962;9.768;2023-02-13T09:22:33;102029.47;;;7.58;58.97
38780;BME280;29273;49.962;9.768;2023-02-13T09:24:58;102036.31;;;7.61;58.60
38780;BME280;29273;49.962;9.768;2023-02-13T09:27:29;102034.13;;;7.66;58.58
38780;BME280;29273;49.962;9.768;2023-02-13T09:29:54;102027.88;;;7.67;58.58
38780;BME280;29273;49.962;9.768;2023-02-13T09:32:20;102021.50;;;7.70;58.79
38780;BME280;29273;49.962;9.768;2023-02-13T09:34:46;102034.44;;;7.73;58.82
38780;BME280;29273;49.962;9.768;2023-02-13T09:37:11;102020.97;;;7.76;58.69
38780;BME280;29273;49.962;9.768;2023-02-13T09:39:36;102020.59;;;7.81;58.50
38780;BME280;29273;49.962;9.768;2023-02-13T09:42:10;102027.88;;;7.88;58.52
38780;BME280;29273;49.962;9.768;2023-02-13T09:44:42;102032.03;;;7.91;58.41
38780;BME280;29273;49.962;9.768;2023-02-13T09:47:20;102040.44;;;7.96;58.24
38780;BME280;29273;49.962;9.768;2023-02-13T09:50:11;102030.72;;;7.96;58.25
38780;BME280;29273;49.962;9.768;2023-02-13T09:52:39;102043.34;;;7.93;58.30
38780;BME280;29273;49.962;9.768;2023-02-13T09:55:17;102043.41;;;8.03;58.12
38780;BME280;29273;49.962;9.768;2023-02-13T10:00:41;102029.78;;;8.07;58.16
38780;BME280;29273;49.962;9.768;2023-02-13T10:05:57;102031.47;;;8.08;57.90
38780;BME280;29273;49.962;9.768;2023-02-13T10:11:40;102031.34;;;8.10;57.75
38780;BME280;29273;49.962;9.768;2023-02-13T10:14:17;102028.00;;;8.08;57.90
38780;BME280;29273;49.962;9.768;2023-02-13T10:16:53;102033.47;;;8.16;57.75
38780;BME280;29273;49.962;9.768;2023-02-13T10:21:59;102028.31;;;8.14;57.89
38780;BME280;29273;49.962;9.768;2023-02-13T10:24:39;102037.38;;;8.22;57.65
38780;BME280;29273;49.962;9.768;2023-02-13T10:27:27;102033.19;;;8.19;57.47
38780;BME280;29273;49.962;9.768;2023-02-13T10:29:56;102039.44;;;8.18;57.57
38780;BME280;29273;49.962;9.768;2023-02-13T10:35:36;102040.00;;;8.22;57.64
38780;BME280;29273;49.962;9.768;2023-02-13T10:38:11;102034.22;;;8.28;57.39
38780;BME280;29273;49.962;9.768;2023-02-13T10:40:39;102030.72;;;8.27;57.56
38780;BME280;29273;49.962;9.768;2023-02-13T10:43:15;102036.72;;;8.29;57.70
38780;BME280;29273;49.962;9.768;2023-02-13T10:46:04;102031.69;;;8.26;57.57
38780;BME280;29273;49.962;9.768;2023-02-13T10:51:36;102019.25;;;8.38;57.96
38780;BME280;29273;49.962;9.768;2023-02-13T10:59:39;102006.94;;;8.48;57.81
38780;BME280;29273;49.962;9.768;2023-02-13T11:02:14;102011.53;;;8.46;57.77
38780;BME280;29273;49.962;9.768;2023-02-13T11:04:45;102009.31;;;8.51;57.51
38780;BME280;29273;49.962;9.768;2023-02-13T11:07:14;102006.16;;;8.58;57.63
38780;BME280;29273;49.962;9.768;2023-02-13T11:09:41;102005.16;;;8.59;57.21
38780;BME280;29273;49.962;9.768;2023-02-13T11:12:34;102003.50;;;8.58;57.53
38780;BME280;29273;49.962;9.768;2023-02-13T11:15:02;101995.28;;;8.61;57.58
38780;BME280;29273;49.962;9.768;2023-02-13T11:17:35;101989.34;;;8.68;57.78
38780;BME280;29273;49.962;9.768;2023-02-13T11:20:04;101992.81;;;8.69;57.83
38780;BME280;29273;49.962;9.768;2023-02-13T11:22:37;101996.75;;;8.75;57.45
38780;BME280;29273;49.962;9.768;2023-02-13T11:25:24;101988.69;;;8.76;57.78
38780;BME280;29273;49.962;9.768;2023-02-13T11:27:50;101996.59;;;8.76;57.50
38780;BME280;29273;49.962;9.768;2023-02-13T11:32:59;101990.09;;;8.90;57.66
38780;BME280;29273;49.962;9.768;2023-02-13T11:35:33;101990.50;;;8.95;57.45
38780;BME280;29273;49.962;9.768;2023-02-13T11:40:45;101986.63;;;8.99;57.32
38780;BME280;29273;49.962;9.768;2023-02-13T11:43:20;101993.16;;;9.05;57.44
38780;BME280;29273;49.962;9.768;2023-02-13T11:46:03;101991.06;;;9.08;57.58
38780;BME280;29273;49.962;9.768;2023-02-13T11:48:29;101989.56;;;9.06;57.18
38780;BME280;29273;49.962;9.768;2023-02-13T11:50:55;101983.69;;;9.12;57.13
38780;BME280;29273;49.962;9.768;2023-02-13T11:53:36;101990.81;;;9.21;57.24
38780;BME280;29273;49.962;9.768;2023-02-13T11:56:20;101982.59;;;9.24;57.38
38780;BME280;29273;49.962;9.768;2023-02-13T11:58:45;101975.34;;;9.26;57.15
38780;BME280;29273;49.962;9.768;2023-02-13T12:04:05;101978.81;;;9.37;56.97
38780;BME280;29273;49.962;9.768;2023-02-13T12:06:33;101982.16;;;9.39;56.75
38780;BME280;29273;49.962;9.768;2023-02-13T12:09:13;101986.22;;;9.23;57.53
38780;BME280;29273;49.962;9.768;2023-02-13T12:11:44;101982.44;;;9.45;57.18
38780;BME280;29273;49.962;9.768;2023-02-13T12:14:15;101973.53;;;9.47;56.73
38780;BME280;29273;49.962;9.768;2023-02-13T12:16:46;101973.25;;;9.50;56.73
38780;BME280;29273;49.962;9.768;2023-02-13T12:19:20;101968.38;;;9.55;56.91
38780;BME280;29273;49.962;9.768;2023-02-13T12:22:08;101976.84;;;9.58;57.07
38780;BME280;29273;49.962;9.768;2023-02-13T12:27:49;101968.38;;;9.65;56.59
38780;BME280;29273;49.962;9.768;2023-02-13T12:35:56;101963.47;;;9.70;56.70
38780;BME280;29273;49.962;9.768;2023-02-13T12:38:38;101963.19;;;9.73;56.59
38780;BME280;29273;49.962;9.768;2023-02-13T12:41:21;101960.41;;;9.74;56.27
38780;BME280;29273;49.962;9.768;2023-02-13T12:44:17;101946.88;;;9.77;56.52
38780;BME280;29273;49.962;9.768;2023-02-13T13:11:50;101926.69;;;10.04;56.44
38780;BME280;29273;49.962;9.768;2023-02-13T13:14:26;101924.78;;;10.06;56.16
38780;BME280;29273;49.962;9.768;2023-02-13T13:22:28;101914.72;;;10.10;56.33
38780;BME280;29273;49.962;9.768;2023-02-13T13:25:04;101911.78;;;10.13;56.52
38780;BME280;29273;49.962;9.768;2023-02-13T13:27:41;101907.16;;;10.15;56.45
38780;BME280;29273;49.962;9.768;2023-02-13T13:30:18;101906.72;;;10.19;56.57
38780;BME280;29273;49.962;9.768;2023-02-13T13:32:49;101903.22;;;10.19;56.17
38780;BME280;29273;49.962;9.768;2023-02-13T13:35:19;101901.97;;;10.23;56.09
38780;BME280;29273;49.962;9.768;2023-02-13T13:37:53;101901.00;;;10.24;56.00
38780;BME280;29273;49.962;9.768;2023-02-13T13:46:37;101898.53;;;10.13;56.40
38780;BME280;29273;49.962;9.768;2023-02-13T13:52:21;101887.09;;;10.12;56.16
38780;BME280;29273;49.962;9.768;2023-02-13T13:54:47;101888.38;;;10.08;55.67
38780;BME280;29273;49.962;9.768;2023-02-13T13:57:17;101881.28;;;10.09;55.84
38780;BME280;29273;49.962;9.768;2023-02-13T14:07:48;101877.84;;;9.98;56.23
38780;BME280;29273;49.962;9.768;2023-02-13T14:13:06;101879.53;;;9.99;56.45
38780;BME280;29273;49.962;9.768;2023-02-13T14:17:58;101870.03;;;9.97;56.53
38780;BME280;29273;49.962;9.768;2023-02-13T14:23:16;101862.63;;;10.00;56.59
38780;BME280;29273;49.962;9.768;2023-02-13T14:25:43;101861.97;;;9.98;56.60
38780;BME280;29273;49.962;9.768;2023-02-13T14:28:26;101857.88;;;10.04;56.39
38780;BME280;29273;49.962;9.768;2023-02-13T14:31:04;101858.06;;;10.03;56.25
38780;BME280;29273;49.962;9.768;2023-02-13T14:33:31;101856.66;;;9.98;56.49
38780;BME280;29273;49.962;9.768;2023-02-13T14:36:05;101849.94;;;10.04;56.57
38780;BME280;29273;49.962;9.768;2023-02-13T14:38:31;101850.41;;;9.99;56.50
38780;BME280;29273;49.962;9.768;2023-02-13T14:40:57;101851.22;;;10.00;56.54
38780;BME280;29273;49.962;9.768;2023-02-13T14:43:31;101848.97;;;10.05;56.33
38780;BME280;29273;49.962;9.768;2023-02-13T14:46:16;101842.16;;;10.03;56.35
38780;BME280;29273;49.962;9.768;2023-02-13T14:48:50;101839.53;;;10.03;56.39
38780;BME280;29273;49.962;9.768;2023-02-13T14:51:22;101836.69;;;10.04;56.38
38780;BME280;29273;49.962;9.768;2023-02-13T14:54:01;101845.66;;;10.03;56.55
38780;BME280;29273;49.962;9.768;2023-02-13T14:56:28;101830.34;;;9.97;56.40
38780;BME280;29273;49.962;9.768;2023-02-13T14:59:03;101830.72;;;10.02;56.34
38780;BME280;29273;49.962;9.768;2023-02-13T15:01:34;101834.38;;;10.01;56.50
38780;BME280;29273;49.962;9.768;2023-02-13T15:04:26;101833.81;;;9.97;56.43
38780;BME280;29273;49.962;9.768;2023-02-13T15:06:55;101826.88;;;9.96;56.54
38780;BME280;29273;49.962;9.768;2023-02-13T15:09:37;101832.84;;;9.98;56.30
38780;BME280;29273;49.962;9.768;2023-02-13T15:12:27;101830.63;;;9.94;56.43
38780;BME280;29273;49.962;9.768;2023-02-13T15:14:53;101827.16;;;9.93;56.61
38780;BME280;29273;49.962;9.768;2023-02-13T15:17:22;101825.19;;;9.95;56.50
38780;BME280;29273;49.962;9.768;2023-02-13T15:19:51;101828.84;;;9.94;56.62
38780;BME280;29273;49.962;9.768;2023-02-13T15:22:38;101821.88;;;9.93;56.46
38780;BME280;29273;49.962;9.768;2023-02-13T15:25:07;101818.25;;;9.94;56.59